Terminal Aerodrome Forecast
Issued by NWS Dodge City, KS

Home | Current Version | Previous Version | Graphics & Text | Print | Product List | Glossary Off
Versions: 1 2 3 4 5 6 7 8 9 10 11 12 13 14 15 16 17 18 19 20 21 22 23 24 25 26 27 28 29 30

000
FTUS43 KDDC 230533
TAFDDC
TAF
KDDC 230533Z 2306/2406 14007KT P6SM BKN200
     FM231200 18006KT P6SM SCT200
     FM231700 20013G22KT P6SM FEW250
     FM232000 23023G35KT P6SM FEW250
     FM240000 26015G25KT P6SM FEW250
     FM240200 34020G30KT P6SM FEW200=

USA.gov is the U.S. government's official web portal to all federal, state and local government web resources and services.